sensor_id;sensor_type;location;lat;lon;timestamp;pressure;altitude;pressure_sealevel;temperature;humidity
18533;BME280;9396;51.510;11.934;2024-03-02T00:00:52;99482.41;;;6.39;100.00
18533;BME280;9396;51.510;11.934;2024-03-02T00:03:19;99468.03;;;6.41;100.00
18533;BME280;9396;51.510;11.934;2024-03-02T00:05:50;99477.03;;;6.48;100.00
18533;BME280;9396;51.510;11.934;2024-03-02T00:08:23;99479.59;;;6.58;100.00
18533;BME280;9396;51.510;11.934;2024-03-02T00:10:52;99443.88;;;6.54;100.00
18533;BME280;9396;51.510;11.934;2024-03-02T00:13:20;99445.25;;;6.58;100.00
18533;BME280;9396;51.510;11.934;2024-03-02T00:15:52;99465.16;;;6.70;100.00
18533;BME280;9396;51.510;11.934;2024-03-02T00:18:20;99468.81;;;6.69;100.00
18533;BME280;9396;51.510;11.934;2024-03-02T00:20:47;99472.56;;;6.67;100.00
18533;BME280;9396;51.510;11.934;2024-03-02T00:23:16;99460.34;;;6.66;100.00
18533;BME280;9396;51.510;11.934;2024-03-02T00:25:47;99465.31;;;6.69;100.00
18533;BME280;9396;51.510;11.934;2024-03-02T00:28:17;99463.38;;;6.71;100.00
18533;BME280;9396;51.510;11.934;2024-03-02T00:31:03;99463.38;;;6.71;100.00
18533;BME280;9396;51.510;11.934;2024-03-02T00:33:31;99461.69;;;6.70;100.00
18533;BME280;9396;51.510;11.934;2024-03-02T00:35:58;99462.00;;;6.67;100.00
18533;BME280;9396;51.510;11.934;2024-03-02T00:38:27;99455.06;;;6.66;100.00
18533;BME280;9396;51.510;11.934;2024-03-02T00:40:54;99450.06;;;6.63;100.00
18533;BME280;9396;51.510;11.934;2024-03-02T00:43:47;99450.91;;;6.63;100.00
18533;BME280;9396;51.510;11.934;2024-03-02T00:46:17;99457.56;;;6.67;100.00
18533;BME280;9396;51.510;11.934;2024-03-02T00:48:55;99448.47;;;6.70;100.00
18533;BME280;9396;51.510;11.934;2024-03-02T00:51:23;99462.22;;;6.73;100.00
18533;BME280;9396;51.510;11.934;2024-03-02T00:53:52;99452.16;;;6.77;100.00
18533;BME280;9396;51.510;11.934;2024-03-02T00:56:21;99450.69;;;6.74;100.00
18533;BME280;9396;51.510;11.934;2024-03-02T00:58:48;99461.41;;;6.73;100.00
18533;BME280;9396;51.510;11.934;2024-03-02T01:01:15;99453.75;;;6.70;100.00
18533;BME280;9396;51.510;11.934;2024-03-02T01:03:42;99455.28;;;6.72;100.00
18533;BME280;9396;51.510;11.934;2024-03-02T01:06:09;99451.34;;;6.76;100.00
18533;BME280;9396;51.510;11.934;2024-03-02T01:08:35;99451.03;;;6.79;100.00
18533;BME280;9396;51.510;11.934;2024-03-02T01:11:04;99446.16;;;6.67;100.00
18533;BME280;9396;51.510;11.934;2024-03-02T01:13:31;99454.59;;;6.70;100.00
18533;BME280;9396;51.510;11.934;2024-03-02T01:15:58;99449.16;;;6.72;100.00
18533;BME280;9396;51.510;11.934;2024-03-02T01:18:25;99452.63;;;6.72;100.00
18533;BME280;9396;51.510;11.934;2024-03-02T01:20:52;99440.88;;;6.67;100.00
18533;BME280;9396;51.510;11.934;2024-03-02T01:23:21;99446.00;;;6.50;100.00
18533;BME280;9396;51.510;11.934;2024-03-02T01:25:47;99445.69;;;6.53;100.00
18533;BME280;9396;51.510;11.934;2024-03-02T01:28:15;99441.78;;;6.58;100.00
18533;BME280;9396;51.510;11.934;2024-03-02T01:30:42;99441.47;;;6.61;100.00
18533;BME280;9396;51.510;11.934;2024-03-02T01:33:09;99446.16;;;6.67;100.00
18533;BME280;9396;51.510;11.934;2024-03-02T01:35:36;99426.97;;;6.65;100.00
18533;BME280;9396;51.510;11.934;2024-03-02T01:38:03;99445.44;;;6.82;100.00
18533;BME280;9396;51.510;11.934;2024-03-02T01:40:31;99448.31;;;6.89;100.00
18533;BME280;9396;51.510;11.934;2024-03-02T01:42:58;99443.56;;;6.92;100.00
18533;BME280;9396;51.510;11.934;2024-03-02T01:45:26;99442.06;;;6.98;100.00
18533;BME280;9396;51.510;11.934;2024-03-02T01:47:53;99442.63;;;7.01;100.00
18533;BME280;9396;51.510;11.934;2024-03-02T01:50:27;99436.19;;;7.04;100.00
18533;BME280;9396;51.510;11.934;2024-03-02T01:52:54;99438.16;;;7.02;100.00
18533;BME280;9396;51.510;11.934;2024-03-02T01:55:20;99438.00;;;7.03;100.00
18533;BME280;9396;51.510;11.934;2024-03-02T01:57:48;99440.50;;;7.05;100.00
18533;BME280;9396;51.510;11.934;2024-03-02T02:00:16;99437.53;;;7.08;100.00
18533;BME280;9396;51.510;11.934;2024-03-02T02:02:44;99442.00;;;7.07;100.00
18533;BME280;9396;51.510;11.934;2024-03-02T02:05:11;99446.44;;;7.07;100.00
18533;BME280;9396;51.510;11.934;2024-03-02T02:07:40;99442.31;;;7.04;100.00
18533;BME280;9396;51.510;11.934;2024-03-02T02:10:07;99438.84;;;7.04;100.00
18533;BME280;9396;51.510;11.934;2024-03-02T02:12:35;99447.25;;;6.99;100.00
18533;BME280;9396;51.510;11.934;2024-03-02T02:15:02;99444.72;;;6.98;100.00
18533;BME280;9396;51.510;11.934;2024-03-02T02:17:29;99445.41;;;7.00;100.00
18533;BME280;9396;51.510;11.934;2024-03-02T02:19:57;99440.00;;;7.01;100.00
18533;BME280;9396;51.510;11.934;2024-03-02T02:22:25;99449.41;;;7.04;100.00
18533;BME280;9396;51.510;11.934;2024-03-02T02:24:52;99446.75;;;7.04;100.00
18533;BME280;9396;51.510;11.934;2024-03-02T02:27:18;99454.84;;;7.02;100.00
18533;BME280;9396;51.510;11.934;2024-03-02T02:29:45;99443.59;;;7.00;100.00
18533;BME280;9396;51.510;11.934;2024-03-02T02:32:12;99444.44;;;7.01;100.00
18533;BME280;9396;51.510;11.934;2024-03-02T02:34:38;99445.41;;;7.00;100.00
18533;BME280;9396;51.510;11.934;2024-03-02T02:37:05;99447.38;;;6.98;100.00
18533;BME280;9396;51.510;11.934;2024-03-02T02:39:33;99449.03;;;6.99;100.00
18533;BME280;9396;51.510;11.934;2024-03-02T02:41:59;99449.72;;;7.01;100.00
18533;BME280;9396;51.510;11.934;2024-03-02T02:44:28;99448.28;;;7.06;100.00
18533;BME280;9396;51.510;11.934;2024-03-02T02:46:54;99447.13;;;7.09;100.00
18533;BME280;9396;51.510;11.934;2024-03-02T02:49:21;99450.44;;;7.11;100.00
18533;BME280;9396;51.510;11.934;2024-03-02T02:51:48;99462.03;;;7.10;100.00
18533;BME280;9396;51.510;11.934;2024-03-02T02:54:14;99456.88;;;7.08;100.00
18533;BME280;9396;51.510;11.934;2024-03-02T02:56:43;99460.34;;;7.09;100.00
18533;BME280;9396;51.510;11.934;2024-03-02T02:59:09;99458.94;;;6.97;100.00
18533;BME280;9396;51.510;11.934;2024-03-02T03:01:36;99454.94;;;6.93;100.00
18533;BME280;9396;51.510;11.934;2024-03-02T03:04:03;99456.78;;;6.92;100.00
18533;BME280;9396;51.510;11.934;2024-03-02T03:06:29;99456.97;;;6.99;100.00
18533;BME280;9396;51.510;11.934;2024-03-02T03:08:56;99455.38;;;7.06;100.00
18533;BME280;9396;51.510;11.934;2024-03-02T03:11:23;99457.53;;;7.10;100.00
18533;BME280;9396;51.510;11.934;2024-03-02T03:13:53;99451.81;;;7.15;100.00
18533;BME280;9396;51.510;11.934;2024-03-02T03:16:20;99457.59;;;7.18;100.00
18533;BME280;9396;51.510;11.934;2024-03-02T03:18:47;99454.63;;;7.21;100.00
18533;BME280;9396;51.510;11.934;2024-03-02T03:21:15;99452.50;;;7.25;100.00
18533;BME280;9396;51.510;11.934;2024-03-02T03:23:42;99452.00;;;7.21;100.00
18533;BME280;9396;51.510;11.934;2024-03-02T03:26:09;99455.31;;;7.23;100.00
18533;BME280;9396;51.510;11.934;2024-03-02T03:28:35;99458.13;;;7.22;100.00
18533;BME280;9396;51.510;11.934;2024-03-02T03:31:04;99445.91;;;7.21;100.00
18533;BME280;9396;51.510;11.934;2024-03-02T03:33:30;99449.00;;;7.16;100.00
18533;BME280;9396;51.510;11.934;2024-03-02T03:35:57;99460.66;;;7.06;100.00
18533;BME280;9396;51.510;11.934;2024-03-02T03:38:23;99454.66;;;6.96;100.00
18533;BME280;9396;51.510;11.934;2024-03-02T03:40:50;99462.19;;;6.91;100.00
18533;BME280;9396;51.510;11.934;2024-03-02T03:43:17;99453.88;;;6.86;100.00
18533;BME280;9396;51.510;11.934;2024-03-02T03:45:43;99462.66;;;6.86;100.00
18533;BME280;9396;51.510;11.934;2024-03-02T03:48:11;99457.16;;;6.80;100.00
18533;BME280;9396;51.510;11.934;2024-03-02T03:50:38;99454.38;;;6.81;100.00
18533;BME280;9396;51.510;11.934;2024-03-02T03:53:05;99461.63;;;6.79;100.00
18533;BME280;9396;51.510;11.934;2024-03-02T03:55:31;99463.72;;;6.76;100.00
18533;BME280;9396;51.510;11.934;2024-03-02T03:57:58;99463.00;;;6.66;100.00
18533;BME280;9396;51.510;11.934;2024-03-02T04:00:25;99459.72;;;6.72;100.00
18533;BME280;9396;51.510;11.934;2024-03-02T04:02:51;99458.28;;;6.77;100.00
18533;BME280;9396;51.510;11.934;2024-03-02T04:05:19;99463.56;;;6.77;100.00
18533;BME280;9396;51.510;11.934;2024-03-02T04:07:46;99450.16;;;6.71;100.00
18533;BME280;9396;51.510;11.934;2024-03-02T04:10:13;99455.28;;;6.72;100.00
18533;BME280;9396;51.510;11.934;2024-03-02T04:12:39;99476.09;;;6.75;100.00
18533;BME280;9396;51.510;11.934;2024-03-02T04:15:07;99473.09;;;6.53;100.00
18533;BME280;9396;51.510;11.934;2024-03-02T04:17:34;99476.88;;;6.50;100.00
18533;BME280;9396;51.510;11.934;2024-03-02T04:20:02;99473.78;;;6.55;100.00
18533;BME280;9396;51.510;11.934;2024-03-02T04:22:33;99475.66;;;6.44;100.00
18533;BME280;9396;51.510;11.934;2024-03-02T04:25:00;99481.88;;;6.53;100.00
18533;BME280;9396;51.510;11.934;2024-03-02T04:27:30;99482.81;;;6.34;100.00
18533;BME280;9396;51.510;11.934;2024-03-02T04:29:56;99477.31;;;6.28;100.00
18533;BME280;9396;51.510;11.934;2024-03-02T04:32:23;99474.69;;;6.28;100.00
18533;BME280;9396;51.510;11.934;2024-03-02T04:34:50;99478.00;;;6.30;100.00
18533;BME280;9396;51.510;11.934;2024-03-02T04:37:16;99484.94;;;6.31;100.00
18533;BME280;9396;51.510;11.934;2024-03-02T04:39:44;99486.91;;;6.46;100.00
18533;BME280;9396;51.510;11.934;2024-03-02T04:42:11;99482.41;;;6.57;100.00
18533;BME280;9396;51.510;11.934;2024-03-02T04:44:38;99483.44;;;6.64;100.00
18533;BME280;9396;51.510;11.934;2024-03-02T04:47:05;99485.47;;;6.70;100.00
18533;BME280;9396;51.510;11.934;2024-03-02T04:49:31;99478.38;;;6.70;100.00
18533;BME280;9396;51.510;11.934;2024-03-02T04:51:58;99471.81;;;6.74;100.00
18533;BME280;9396;51.510;11.934;2024-03-02T04:54:25;99480.72;;;6.73;100.00
18533;BME280;9396;51.510;11.934;2024-03-02T04:56:53;99488.44;;;6.67;100.00
18533;BME280;9396;51.510;11.934;2024-03-02T04:59:20;99492.72;;;6.68;100.00
18533;BME280;9396;51.510;11.934;2024-03-02T05:01:46;99486.78;;;6.66;100.00
18533;BME280;9396;51.510;11.934;2024-03-02T05:04:13;99491.75;;;6.69;100.00
18533;BME280;9396;51.510;11.934;2024-03-02T05:06:40;99494.75;;;6.74;100.00
18533;BME280;9396;51.510;11.934;2024-03-02T05:09:07;99499.22;;;6.73;100.00
18533;BME280;9396;51.510;11.934;2024-03-02T05:11:34;99500.94;;;6.65;100.00
18533;BME280;9396;51.510;11.934;2024-03-02T05:14:19;99506.16;;;6.57;100.00
18533;BME280;9396;51.510;11.934;2024-03-02T05:16:45;99503.91;;;6.62;100.00
18533;BME280;9396;51.510;11.934;2024-03-02T05:19:12;99507.59;;;6.69;100.00
18533;BME280;9396;51.510;11.934;2024-03-02T05:21:39;99508.13;;;6.72;100.00
18533;BME280;9396;51.510;11.934;2024-03-02T05:24:06;99504.50;;;6.73;100.00
18533;BME280;9396;51.510;11.934;2024-03-02T05:26:32;99506.97;;;6.75;100.00
18533;BME280;9396;51.510;11.934;2024-03-02T05:28:59;99500.72;;;6.76;100.00
18533;BME280;9396;51.510;11.934;2024-03-02T05:31:27;99508.19;;;6.80;100.00
18533;BME280;9396;51.510;11.934;2024-03-02T05:33:53;99496.81;;;6.80;100.00
18533;BME280;9396;51.510;11.934;2024-03-02T05:36:20;99500.34;;;6.71;100.00
18533;BME280;9396;51.510;11.934;2024-03-02T05:38:47;99500.19;;;6.72;100.00
18533;BME280;9396;51.510;11.934;2024-03-02T05:41:13;99497.63;;;6.63;100.00
18533;BME280;9396;51.510;11.934;2024-03-02T05:43:40;99500.13;;;6.64;100.00
18533;BME280;9396;51.510;11.934;2024-03-02T05:46:07;99497.78;;;6.61;100.00
18533;BME280;9396;51.510;11.934;2024-03-02T05:48:35;99498.25;;;6.57;100.00
18533;BME280;9396;51.510;11.934;2024-03-02T05:51:01;99498.09;;;6.58;100.00
18533;BME280;9396;51.510;11.934;2024-03-02T05:53:28;99511.47;;;6.57;100.00
18533;BME280;9396;51.510;11.934;2024-03-02T05:55:55;99515.00;;;6.47;100.00
18533;BME280;9396;51.510;11.934;2024-03-02T05:58:22;99523.88;;;6.46;100.00
18533;BME280;9396;51.510;11.934;2024-03-02T06:00:59;99525.25;;;6.50;100.00
18533;BME280;9396;51.510;11.934;2024-03-02T06:03:26;99531.91;;;6.55;100.00
18533;BME280;9396;51.510;11.934;2024-03-02T06:05:55;99526.84;;;6.61;100.00
18533;BME280;9396;51.510;11.934;2024-03-02T06:08:21;99528.66;;;6.61;100.00
18533;BME280;9396;51.510;11.934;2024-03-02T06:10:48;99528.97;;;6.58;100.00
18533;BME280;9396;51.510;11.934;2024-03-02T06:13:15;99526.41;;;6.66;100.00
18533;BME280;9396;51.510;11.934;2024-03-02T06:15:41;99532.75;;;6.73;100.00
18533;BME280;9396;51.510;11.934;2024-03-02T06:18:08;99538.78;;;6.83;100.00
18533;BME280;9396;51.510;11.934;2024-03-02T06:20:34;99532.91;;;6.89;100.00
18533;BME280;9396;51.510;11.934;2024-03-02T06:23:03;99539.25;;;6.96;100.00
18533;BME280;9396;51.510;11.934;2024-03-02T06:25:30;99535.00;;;7.03;100.00
18533;BME280;9396;51.510;11.934;2024-03-02T06:27:57;99531.44;;;7.12;100.00
18533;BME280;9396;51.510;11.934;2024-03-02T06:30:24;99535.75;;;7.13;100.00
18533;BME280;9396;51.510;11.934;2024-03-02T06:32:50;99538.53;;;7.11;100.00
18533;BME280;9396;51.510;11.934;2024-03-02T06:35:17;99533.16;;;7.03;100.00
18533;BME280;9396;51.510;11.934;2024-03-02T06:37:44;99540.50;;;7.09;100.00
18533;BME280;9396;51.510;11.934;2024-03-02T06:40:12;99542.75;;;7.22;100.00
18533;BME280;9396;51.510;11.934;2024-03-02T06:42:38;99546.44;;;7.29;100.00
18533;BME280;9396;51.510;11.934;2024-03-02T06:45:06;99539.13;;;7.23;100.00
18533;BME280;9396;51.510;11.934;2024-03-02T06:47:32;99539.63;;;7.26;100.00
18533;BME280;9396;51.510;11.934;2024-03-02T06:49:59;99534.09;;;7.37;100.00
18533;BME280;9396;51.510;11.934;2024-03-02T06:52:26;99543.28;;;7.25;100.00
18533;BME280;9396;51.510;11.934;2024-03-02T06:54:52;99541.88;;;7.39;100.00
18533;BME280;9396;51.510;11.934;2024-03-02T06:57:20;99542.50;;;7.58;100.00
18533;BME280;9396;51.510;11.934;2024-03-02T06:59:47;99545.41;;;7.73;100.00
18533;BME280;9396;51.510;11.934;2024-03-02T07:02:15;99537.03;;;7.86;100.00
18533;BME280;9396;51.510;11.934;2024-03-02T07:04:42;99548.19;;;7.97;100.00
18533;BME280;9396;51.510;11.934;2024-03-02T07:07:10;99549.75;;;8.08;100.00
18533;BME280;9396;51.510;11.934;2024-03-02T07:09:36;99554.09;;;8.17;100.00
18533;BME280;9396;51.510;11.934;2024-03-02T07:12:03;99565.56;;;8.25;100.00
18533;BME280;9396;51.510;11.934;2024-03-02T07:14:31;99558.66;;;8.32;100.00
18533;BME280;9396;51.510;11.934;2024-03-02T07:17:12;99550.03;;;8.38;100.00
18533;BME280;9396;51.510;11.934;2024-03-02T07:19:39;99559.31;;;8.42;100.00
18533;BME280;9396;51.510;11.934;2024-03-02T07:22:06;99552.84;;;8.37;100.00
18533;BME280;9396;51.510;11.934;2024-03-02T07:24:39;99553.97;;;8.26;100.00
18533;BME280;9396;51.510;11.934;2024-03-02T07:27:05;99557.47;;;8.35;100.00
18533;BME280;9396;51.510;11.934;2024-03-02T07:29:33;99556.16;;;8.39;100.00
18533;BME280;9396;51.510;11.934;2024-03-02T07:31:59;99560.16;;;8.43;100.00
18533;BME280;9396;51.510;11.934;2024-03-02T07:34:26;99564.97;;;8.47;100.00
18533;BME280;9396;51.510;11.934;2024-03-02T07:36:53;99559.38;;;8.50;100.00
18533;BME280;9396;51.510;11.934;2024-03-02T07:39:19;99561.34;;;8.56;100.00
18533;BME280;9396;51.510;11.934;2024-03-02T07:41:46;99553.09;;;8.59;100.00
18533;BME280;9396;51.510;11.934;2024-03-02T07:44:13;99546.47;;;8.63;100.00
18533;BME280;9396;51.510;11.934;2024-03-02T07:46:42;99552.75;;;8.62;100.00
18533;BME280;9396;51.510;11.934;2024-03-02T07:49:09;99534.19;;;8.54;100.00
18533;BME280;9396;51.510;11.934;2024-03-02T07:51:36;99551.63;;;8.65;100.00
18533;BME280;9396;51.510;11.934;2024-03-02T07:54:02;99552.13;;;8.69;100.00
18533;BME280;9396;51.510;11.934;2024-03-02T07:56:29;99556.38;;;8.61;100.00
18533;BME280;9396;51.510;11.934;2024-03-02T07:58:56;99545.78;;;8.61;100.00
18533;BME280;9396;51.510;11.934;2024-03-02T08:01:26;99546.81;;;8.69;100.00
18533;BME280;9396;51.510;11.934;2024-03-02T08:03:54;99548.63;;;8.76;100.00
18533;BME280;9396;51.510;11.934;2024-03-02T08:06:23;99552.13;;;8.85;100.00
18533;BME280;9396;51.510;11.934;2024-03-02T08:08:53;99556.75;;;8.67;100.00
18533;BME280;9396;51.510;11.934;2024-03-02T08:11:19;99563.69;;;8.59;100.00
18533;BME280;9396;51.510;11.934;2024-03-02T08:13:46;99563.66;;;8.51;100.00
18533;BME280;9396;51.510;11.934;2024-03-02T08:16:13;99562.75;;;8.69;100.00
18533;BME280;9396;51.510;11.934;2024-03-02T08:18:39;99562.91;;;8.75;100.00
18533;BME280;9396;51.510;11.934;2024-03-02T08:21:08;99566.22;;;8.85;100.00
18533;BME280;9396;51.510;11.934;2024-03-02T08:23:35;99567.41;;;8.83;100.00
18533;BME280;9396;51.510;11.934;2024-03-02T08:26:02;99567.91;;;8.86;100.00
18533;BME280;9396;51.510;11.934;2024-03-02T08:28:29;99570.38;;;8.96;100.00
18533;BME280;9396;51.510;11.934;2024-03-02T08:30:56;99571.22;;;8.88;100.00
18533;BME280;9396;51.510;11.934;2024-03-02T08:33:23;99573.56;;;9.07;100.00
18533;BME280;9396;51.510;11.934;2024-03-02T08:35:49;99576.72;;;9.11;100.00
18533;BME280;9396;51.510;11.934;2024-03-02T08:38:18;99578.38;;;9.20;100.00
18533;BME280;9396;51.510;11.934;2024-03-02T08:40:44;99581.84;;;9.28;100.00
18533;BME280;9396;51.510;11.934;2024-03-02T08:43:11;99573.88;;;9.36;100.00
18533;BME280;9396;51.510;11.934;2024-03-02T08:45:38;99576.41;;;9.38;100.00
18533;BME280;9396;51.510;11.934;2024-03-02T08:48:06;99578.69;;;9.49;100.00
18533;BME280;9396;51.510;11.934;2024-03-02T08:50:33;99587.31;;;9.51;100.00
18533;BME280;9396;51.510;11.934;2024-03-02T08:52:59;99581.03;;;9.52;100.00
18533;BME280;9396;51.510;11.934;2024-03-02T08:55:27;99585.16;;;9.62;100.00
18533;BME280;9396;51.510;11.934;2024-03-02T08:57:54;99582.81;;;9.59;100.00
18533;BME280;9396;51.510;11.934;2024-03-02T09:00:21;99598.13;;;9.57;100.00
18533;BME280;9396;51.510;11.934;2024-03-02T09:02:48;99602.25;;;9.52;100.00
18533;BME280;9396;51.510;11.934;2024-03-02T09:05:15;99591.63;;;9.60;100.00
18533;BME280;9396;51.510;11.934;2024-03-02T09:07:42;99595.63;;;9.64;100.00
18533;BME280;9396;51.510;11.934;2024-03-02T09:10:09;99598.94;;;9.66;100.00
18533;BME280;9396;51.510;11.934;2024-03-02T09:12:38;99597.59;;;9.78;100.00
18533;BME280;9396;51.510;11.934;2024-03-02T09:15:05;99594.59;;;9.81;100.00
18533;BME280;9396;51.510;11.934;2024-03-02T09:17:32;99603.03;;;9.93;100.00
18533;BME280;9396;51.510;11.934;2024-03-02T09:19:59;99606.00;;;9.98;100.00
18533;BME280;9396;51.510;11.934;2024-03-02T09:22:26;99606.16;;;10.04;100.00
18533;BME280;9396;51.510;11.934;2024-03-02T09:24:52;99605.53;;;10.10;100.00
18533;BME280;9396;51.510;11.934;2024-03-02T09:27:19;99604.50;;;10.11;100.00
18533;BME280;9396;51.510;11.934;2024-03-02T09:29:47;99607.16;;;10.19;100.00
18533;BME280;9396;51.510;11.934;2024-03-02T09:32:14;99609.63;;;10.29;100.00
18533;BME280;9396;51.510;11.934;2024-03-02T09:34:41;99615.25;;;10.34;100.00
18533;BME280;9396;51.510;11.934;2024-03-02T09:37:08;99616.75;;;10.28;100.00
18533;BME280;9396;51.510;11.934;2024-03-02T09:39:35;99611.81;;;10.17;100.00
18533;BME280;9396;51.510;11.934;2024-03-02T09:42:03;99613.31;;;10.20;100.00
18533;BME280;9396;51.510;11.934;2024-03-02T09:44:31;99623.41;;;10.24;100.00
18533;BME280;9396;51.510;11.934;2024-03-02T09:46:59;99618.72;;;10.34;100.00
18533;BME280;9396;51.510;11.934;2024-03-02T09:49:26;99620.09;;;10.30;100.00
18533;BME280;9396;51.510;11.934;2024-03-02T09:51:52;99622.19;;;10.43;100.00
18533;BME280;9396;51.510;11.934;2024-03-02T09:54:19;99617.22;;;10.40;100.00
18533;BME280;9396;51.510;11.934;2024-03-02T09:56:46;99621.00;;;10.53;100.00
18533;BME280;9396;51.510;11.934;2024-03-02T09:59:13;99612.94;;;10.69;100.00
18533;BME280;9396;51.510;11.934;2024-03-02T10:01:55;99618.56;;;10.74;99.81
18533;BME280;9396;51.510;11.934;2024-03-02T10:04:24;99623.66;;;10.84;99.23
18533;BME280;9396;51.510;11.934;2024-03-02T10:06:51;99619.31;;;10.91;98.84
18533;BME280;9396;51.510;11.934;2024-03-02T10:09:27;99620.78;;;10.94;98.30
18533;BME280;9396;51.510;11.934;2024-03-02T10:12:03;99624.13;;;10.88;98.75
18533;BME280;9396;51.510;11.934;2024-03-02T10:14:30;99626.75;;;10.96;97.73
18533;BME280;9396;51.510;11.934;2024-03-02T10:17:02;99628.41;;;10.97;97.49
18533;BME280;9396;51.510;11.934;2024-03-02T10:19:31;99621.72;;;11.01;98.06
18533;BME280;9396;51.510;11.934;2024-03-02T10:22:00;99618.84;;;11.10;98.25
18533;BME280;9396;51.510;11.934;2024-03-02T10:24:35;99614.31;;;11.19;97.39
18533;BME280;9396;51.510;11.934;2024-03-02T10:27:06;99610.94;;;11.25;96.57
18533;BME280;9396;51.510;11.934;2024-03-02T10:29:36;99606.59;;;11.24;97.20
18533;BME280;9396;51.510;11.934;2024-03-02T10:32:04;99622.81;;;11.37;97.27
18533;BME280;9396;51.510;11.934;2024-03-02T10:34:33;99610.63;;;11.42;97.22
18533;BME280;9396;51.510;11.934;2024-03-02T10:36:59;99612.03;;;11.53;97.20
18533;BME280;9396;51.510;11.934;2024-03-02T10:39:26;99612.22;;;11.51;96.84
18533;BME280;9396;51.510;11.934;2024-03-02T10:41:55;99607.06;;;11.50;95.59
18533;BME280;9396;51.510;11.934;2024-03-02T10:44:23;99592.66;;;11.44;95.52
18533;BME280;9396;51.510;11.934;2024-03-02T10:46:50;99596.78;;;11.47;95.33
18533;BME280;9396;51.510;11.934;2024-03-02T10:49:20;99600.28;;;11.47;94.88
18533;BME280;9396;51.510;11.934;2024-03-02T10:51:50;99600.50;;;11.60;95.63
18533;BME280;9396;51.510;11.934;2024-03-02T10:54:17;99597.19;;;11.58;95.00
18533;BME280;9396;51.510;11.934;2024-03-02T10:56:53;99604.22;;;11.74;95.30
18533;BME280;9396;51.510;11.934;2024-03-02T10:59:26;99588.63;;;11.71;96.06
18533;BME280;9396;51.510;11.934;2024-03-02T11:01:55;99594.88;;;11.78;95.45
18533;BME280;9396;51.510;11.934;2024-03-02T11:04:24;99594.97;;;11.84;95.57
18533;BME280;9396;51.510;11.934;2024-03-02T11:06:58;99592.56;;;11.75;94.53
18533;BME280;9396;51.510;11.934;2024-03-02T11:09:28;99599.56;;;11.76;94.77
18533;BME280;9396;51.510;11.934;2024-03-02T11:12:00;99599.91;;;11.73;95.32
18533;BME280;9396;51.510;11.934;2024-03-02T11:14:30;99595.69;;;11.78;94.93
18533;BME280;9396;51.510;11.934;2024-03-02T11:16:58;99590.47;;;11.85;94.56
18533;BME280;9396;51.510;11.934;2024-03-02T11:19:25;99590.28;;;11.87;94.89
18533;BME280;9396;51.510;11.934;2024-03-02T11:21:54;99579.91;;;11.92;95.99
18533;BME280;9396;51.510;11.934;2024-03-02T11:24:33;99578.25;;;11.91;95.60
18533;BME280;9396;51.510;11.934;2024-03-02T11:26:59;99585.16;;;11.85;94.65
18533;BME280;9396;51.510;11.934;2024-03-02T11:29:42;99588.47;;;11.87;95.27
18533;BME280;9396;51.510;11.934;2024-03-02T11:32:14;99584.41;;;11.76;95.09
18533;BME280;9396;51.510;11.934;2024-03-02T11:34:42;99583.66;;;11.82;96.27
18533;BME280;9396;51.510;11.934;2024-03-02T11:37:13;99569.81;;;11.87;95.84
18533;BME280;9396;51.510;11.934;2024-03-02T11:39:41;99577.06;;;11.93;95.48
18533;BME280;9396;51.510;11.934;2024-03-02T11:42:08;99569.44;;;11.90;93.84
18533;BME280;9396;51.510;11.934;2024-03-02T11:44:36;99572.56;;;11.94;93.56
18533;BME280;9396;51.510;11.934;2024-03-02T11:47:05;99560.97;;;11.87;93.54
18533;BME280;9396;51.510;11.934;2024-03-02T11:49:38;99557.66;;;11.84;94.04
18533;BME280;9396;51.510;11.934;2024-03-02T11:52:06;99562.63;;;11.88;94.14
18533;BME280;9396;51.510;11.934;2024-03-02T11:54:36;99558.59;;;11.92;94.96
18533;BME280;9396;51.510;11.934;2024-03-02T11:57:05;99551.22;;;11.79;93.05
18533;BME280;9396;51.510;11.934;2024-03-02T11:59:38;99539.91;;;11.77;93.67
18533;BME280;9396;51.510;11.934;2024-03-02T12:02:05;99546.16;;;11.84;94.24
18533;BME280;9396;51.510;11.934;2024-03-02T12:04:32;99546.81;;;11.86;94.43
18533;BME280;9396;51.510;11.934;2024-03-02T12:07:00;99542.97;;;11.89;93.78
18533;BME280;9396;51.510;11.934;2024-03-02T12:09:27;99536.81;;;11.88;93.85
18533;BME280;9396;51.510;11.934;2024-03-02T12:12:06;99543.44;;;11.92;94.08
18533;BME280;9396;51.510;11.934;2024-03-02T12:14:34;99543.16;;;11.87;93.62
18533;BME280;9396;51.510;11.934;2024-03-02T12:17:01;99542.31;;;11.87;93.45
18533;BME280;9396;51.510;11.934;2024-03-02T12:19:28;99539.47;;;11.88;93.60
18533;BME280;9396;51.510;11.934;2024-03-02T12:21:55;99538.75;;;11.94;94.79
18533;BME280;9396;51.510;11.934;2024-03-02T12:24:22;99535.44;;;11.92;92.28
18533;BME280;9396;51.510;11.934;2024-03-02T12:26:50;99540.56;;;11.94;91.90
18533;BME280;9396;51.510;11.934;2024-03-02T12:29:20;99543.69;;;11.97;91.71
18533;BME280;9396;51.510;11.934;2024-03-02T12:31:48;99541.94;;;12.04;92.48
18533;BME280;9396;51.510;11.934;2024-03-02T12:34:15;99544.88;;;12.09;91.29
18533;BME280;9396;51.510;11.934;2024-03-02T12:36:43;99535.91;;;12.10;91.50
18533;BME280;9396;51.510;11.934;2024-03-02T12:39:13;99539.66;;;12.16;91.56
18533;BME280;9396;51.510;11.934;2024-03-02T12:41:40;99535.50;;;12.13;90.95
18533;BME280;9396;51.510;11.934;2024-03-02T12:44:07;99534.78;;;12.05;90.17
18533;BME280;9396;51.510;11.934;2024-03-02T12:46:35;99533.56;;;12.07;90.73
18533;BME280;9396;51.510;11.934;2024-03-02T12:49:08;99537.53;;;12.11;90.86
18533;BME280;9396;51.510;11.934;2024-03-02T12:51:36;99535.06;;;12.10;89.29
18533;BME280;9396;51.510;11.934;2024-03-02T12:54:03;99535.97;;;12.17;90.95
18533;BME280;9396;51.510;11.934;2024-03-02T12:56:31;99529.47;;;12.19;89.94
18533;BME280;9396;51.510;11.934;2024-03-02T12:58:58;99530.06;;;12.21;90.21
18533;BME280;9396;51.510;11.934;2024-03-02T13:01:25;99533.03;;;12.26;90.31
18533;BME280;9396;51.510;11.934;2024-03-02T13:03:54;99526.47;;;12.29;90.24